ADDS METAR Data INFO
IDs: Format: Raw Decoded Include TAF

Data at: 1533 UTC 25 Feb 2018

KMAN 251515Z AUTO 13004KT 10SM SCT043 BKN050 OVC120 M05/M05 A3015 RMK A01
KMAN 251455Z AUTO 12004KT 10SM SCT050 BKN065 OVC120 M05/M05 A3014 RMK A01
KMAN 251435Z AUTO 13003KT 10SM FEW049 FEW055 OVC070 M06/M06 A3014 RMK A01
KMAN 251415Z AUTO 12006KT 10SM FEW049 SCT055 OVC070 M06/M06 A3014 RMK A01
KMAN 251355Z AUTO 10004KT 10SM BKN055 OVC070 M06/M06 A3015 RMK A01
KMAN 251335Z AUTO 00000KT 10SM OVC070 M06/M06 A3016 RMK A01
KMAN 251315Z AUTO 13005KT 10SM BKN075 OVC090 M07/M07 A3016 RMK A01
KMAN 251255Z AUTO 11003KT 10SM BKN080 OVC090 M07/M07 A3016 RMK A01
KMAN 251235Z AUTO 12004KT 10SM FEW055 OVC080 M07/M07 A3016 RMK A01
KMAN 251215Z AUTO 13005KT 10SM BKN055 OVC080 M07/M07 A3016 RMK A01
KMAN 251155Z AUTO 13004KT 10SM OVC060 M07/M07 A3017 RMK A01
KMAN 251135Z AUTO 13004KT 10SM OVC055 M08/M08 A3017 RMK A01
KMAN 251115Z AUTO 16003KT 10SM BKN060 M09/M09 A3017 RMK A01
KMAN 251055Z AUTO 13004KT 10SM BKN055 M10/M10 A3016 RMK A01
KMAN 251035Z AUTO 11006KT 10SM SCT050 M12/M12 A3015 RMK A01
KMAN 251015Z AUTO 00000KT 10SM FEW049 FEW055 M09/M09 A3015 RMK A01
KMAN 250955Z AUTO 11004KT 10SM FEW050 SCT110 M11/M11 A3015 RMK A01
KMAN 250935Z AUTO 08004KT 10SM FEW055 FEW110 M10/M10 A3016 RMK A01
KMAN 250915Z AUTO 00000KT 10SM FEW050 FEW060 FEW070 M09/M09 A3017 RMK A01
KMAN 250855Z AUTO 11003KT 10SM FEW060 SCT070 M10/M10 A3017 RMK A01
KMAN 250835Z AUTO 10003KT 10SM CLR M11/M11 A3017 RMK A01
KMAN 250815Z AUTO 00000KT 10SM CLR M12/M12 A3017 RMK A01
KMAN 250755Z AUTO 00000KT 9SM CLR M11/M11 A3016 RMK A01
KMAN 250735Z AUTO 00000KT 8SM CLR M09/M09 A3016 RMK A01
KMAN 250715Z AUTO 00000KT 10SM CLR M10/M10 A3015 RMK A01
KMAN 250655Z AUTO 00000KT 9SM CLR M06/M06 A3014 RMK A01
KMAN 250635Z AUTO 00000KT 10SM CLR M07/M07 A3015 RMK A01
KMAN 250615Z AUTO 00000KT 10SM CLR M07/M07 A3014 RMK A01
KMAN 250555Z AUTO 02005KT 10SM CLR M03/M05 A3013 RMK A01
KMAN 250535Z AUTO 34004KT 10SM CLR M03/M05 A3013 RMK A01
KMAN 250515Z AUTO 32004KT 10SM CLR M03/M05 A3012 RMK A01
KMAN 250455Z AUTO 32003KT 10SM CLR M03/M04 A3012 RMK A01
KMAN 250435Z AUTO 32004KT 10SM CLR M03/M03 A3011 RMK A01
KMAN 250415Z AUTO 00000KT 10SM CLR M02/M02 A3010 RMK A01
KMAN 250355Z AUTO 28005KT 10SM FEW070 M03/M03 A3009 RMK A01
KMAN 250335Z AUTO 00000KT 10SM BKN065 BKN075 M02/M02 A3007 RMK A01
KMAN 250315Z AUTO 00000KT 10SM BKN065 M02/M02 A3007 RMK A01
KMAN 250255Z AUTO 30003KT 10SM FEW046 SCT055 BKN110 M02/M02 A3006 RMK A01
KMAN 250235Z AUTO 28005KT 10SM FEW045 SCT060 BKN110 M02/M02 A3005 RMK A01
KMAN 250215Z AUTO 24005KT 10SM BKN060 BKN070 M02/M03 A3004 RMK A01
KMAN 250155Z AUTO 31004KT 10SM FEW046 FEW055 SCT075 M01/M01 A3003 RMK A01
KMAN 250135Z AUTO 00000KT 10SM CLR M01/M01 A3002 RMK A01
KMAN 250115Z AUTO 31003KT 10SM FEW080 FEW090 M00/M00 A3001 RMK A01
KMAN 250055Z AUTO 33004KT 10SM M00/M00 A3000 RMK A01
KMAN 250035Z AUTO 35006G13KT 10SM FEW002 FEW007 M01/M01 A2999 RMK A01
KMAN 250015Z AUTO 33009G18KT 1/4SM FZFG OVC002 M00/M00 A2998 RMK A01
KMAN 242355Z AUTO 31017G22KT 4SM BR FEW004 SCT043 BKN065 01/01 A2997 RMK A01 P0001
KMAN 242335Z AUTO 32006KT 10SM CLR 01/01 A2995 RMK A01
KMAN 242315Z AUTO 30005KT 10SM CLR 01/01 A2994 RMK A01
KMAN 242255Z AUTO 00000KT 10SM CLR 00/00 A2993 RMK A01 P0004
KMAN 242235Z AUTO 00000KT 9SM CLR 00/00 A2992 RMK A01
KMAN 242215Z AUTO 00000KT 1SM BR BKN003 SCT008 BKN013 M00/M00 A2992 RMK A01
KMAN 242155Z AUTO 27007G16KT 240V340 1 1/4SM BR BKN003 BKN006 OVC031 00/00 A2991 RMK A01 P0001
KMAN 242135Z AUTO 11011KT 8SM FEW006 SCT033 BKN044 00/00 A2989 RMK A01
KMAN 242115Z AUTO 11012KT 10SM FEW037 FEW048 BKN070 00/00 A2988 RMK A01
KMAN 242055Z AUTO 11013KT 10SM FEW040 00/00 A2989 RMK A01 P0001
KMAN 242035Z AUTO 12012KT 10SM BKN038 BKN044 M00/M00 A2991 RMK A01
KMAN 242015Z AUTO 11012KT 10SM FEW030 BKN037 OVC043 M01/M01 A2992 RMK A01
KMAN 241955Z AUTO 12010KT 10SM FEW017 BKN028 OVC036 M01/M01 A2993 RMK A01
KMAN 241935Z AUTO 12011KT 3SM BR FEW003 BKN023 OVC033 M01/M01 A2994 RMK A01
KMAN 241915Z AUTO 12009G17KT 1/2SM FZFG OVC003 M02/M02 A2995 RMK A01
KMAN 241855Z AUTO 13008G13KT 1/2SM FZFG OVC003 M02/M02 A2995 RMK A01
KMAN 241835Z AUTO 12009G17KT 3/4SM BR BKN003 M02/M02 A2995 RMK A01
KMAN 241815Z AUTO 12011KT 1/2SM BR BKN003 M02/M02 A2996 RMK A01
KMAN 241755Z AUTO 12014G19KT 1/4SM FZFG BKN003 M02/M02 A2997 RMK A01
KMAN 241735Z AUTO 14011G20KT 1/2SM FZFG BKN003 M02/M02 A2997 RMK A01
KMAN 241715Z AUTO 12010G16KT 3/4SM BR OVC002 M02/M02 A2998 RMK A01
KMAN 241655Z AUTO 13010G17KT M1/4SM FZFG OVC002 M03/M03 A2999 RMK A01
KMAN 241635Z AUTO 14010KT 3/4SM BR OVC003 M02/M02 A3000 RMK A01
KMAN 241615Z AUTO 13011KT 9SM FEW018 SCT024 BKN029 M02/M02 A3001 RMK A01
KMAN 241555Z AUTO 12010KT 10SM SCT028 BKN033 BKN049 M02/M02 A3001 RMK A01
KMAN 241535Z AUTO 13011KT 10SM CLR M03/M03 A3002 RMK A01
KMAN 241515Z AUTO 12013KT 8SM FEW025 FEW044 SCT070 M03/M03 A3002 RMK A01
KMAN 241455Z AUTO 13011KT 10SM SCT027 BKN040 BKN065 M03/M03 A3004 RMK A01
KMAN 241435Z AUTO 13010KT 10SM BKN033 BKN046 OVC110 M03/M04 A3005 RMK A01
KMAN 241415Z AUTO 12010KT 9SM BKN034 OVC045 M02/M05 A3006 RMK A01
KMAN 241355Z AUTO 12007KT 10SM FEW033 BKN047 OVC055 M03/M05 A3007 RMK A01
KMAN 241335Z AUTO 13009G14KT 10SM BKN047 OVC055 M03/M06 A3008 RMK A01
KMAN 241315Z AUTO 12008G16KT 10SM FEW042 OVC049 M02/M07 A3009 RMK A01
KMAN 241255Z AUTO 13009KT 10SM FEW031 BKN043 OVC050 M02/M08 A3010 RMK A01
KMAN 241235Z AUTO 15008KT 10SM FEW028 BKN043 OVC050 M03/M08 A3011 RMK A01
KMAN 241215Z AUTO 13006KT 10SM OVC050 M03/M07 A3012 RMK A01
KMAN 241155Z AUTO 13007KT 10SM FEW037 OVC050 M03/M07 A3012 RMK A01
KMAN 241135Z AUTO 12007KT 10SM OVC048 M03/M08 A3012 RMK A01
KMAN 241115Z AUTO 12008KT 10SM OVC047 M03/M08 A3014 RMK A01
KMAN 241055Z AUTO 14006KT 10SM OVC049 M03/M07 A3015 RMK A01
KMAN 241035Z AUTO 14005KT 10SM BKN050 OVC060 M03/M07 A3015 RMK A01
KMAN 241015Z AUTO 13005KT 10SM OVC055 M03/M07 A3017 RMK A01
KMAN 240955Z AUTO 13005KT 10SM BKN060 OVC070 M03/M07 A3017 RMK A01
KMAN 240935Z AUTO 12005KT 10SM OVC060 M03/M07 A3018 RMK A01
KMAN 240915Z AUTO 12005KT 10SM OVC065 M03/M08 A3019 RMK A01
KMAN 240855Z AUTO 14004KT 10SM FEW050 OVC070 M03/M08 A3020 RMK A01
KMAN 240835Z AUTO 13004KT 10SM OVC065 M04/M07 A3020 RMK A01
KMAN 240815Z AUTO 10005KT 10SM OVC065 M04/M08 A3020 RMK A01
KMAN 240755Z AUTO 00000KT 10SM OVC070 M04/M08 A3021 RMK A01
KMAN 240735Z AUTO 12004KT 10SM FEW055 OVC075 M04/M08 A3021 RMK A01
KMAN 240715Z AUTO 12004KT 10SM SCT060 OVC075 M04/M07 A3021 RMK A01
KMAN 240655Z AUTO 13004KT 10SM BKN060 OVC075 M04/M07 A3022 RMK A01
KMAN 240635Z AUTO 11007KT 10SM BKN060 OVC070 M04/M08 A3022 RMK A01
KMAN 240615Z AUTO 13004KT 10SM FEW050 OVC070 M04/M07 A3023 RMK A01
KMAN 240555Z AUTO 13005KT 10SM OVC070 M04/M07 A3023 RMK A01
KMAN 240535Z AUTO 12004KT 10SM OVC075 M03/M08 A3024 RMK A01
KMAN 240515Z AUTO 13004KT 10SM OVC075 M03/M08 A3024 RMK A01
KMAN 240455Z AUTO 00000KT 10SM BKN065 OVC075 M01/M12 A3024 RMK A01
KMAN 240435Z AUTO 22004KT 10SM BKN065 OVC075 M01/M11 A3025 RMK A01
KMAN 240415Z AUTO 24004KT 10SM FEW055 OVC075 M01/M12 A3025 RMK A01
KMAN 240355Z AUTO 25005KT 10SM FEW041 BKN049 OVC075 M01/M12 A3025 RMK A01
KMAN 240335Z AUTO 24005KT 10SM FEW041 SCT048 BKN060 M01/M12 A3026 RMK A01